ěÝzenÝ letovÚho provozu ╚eskÚ republiky
Letiste: LKCS Aktualizace: 24.09.2023 02:30:40  UTC
 METAR LKCS 24.09. 02:30 ...
METAR LKCS 240230Z AUTO 26002KT CAVOK 07/06 Q1024=